sensor_id;sensor_type;location;lat;lon;timestamp;P1;durP1;ratioP1;P2;durP2;ratioP2
20525;SDS011;10421;49.142;9.232;2023-02-15T00:00:54;17.73;;;10.03;;
20525;SDS011;10421;49.142;9.232;2023-02-15T00:03:30;17.10;;;8.87;;
20525;SDS011;10421;49.142;9.232;2023-02-15T00:05:57;19.10;;;10.17;;
20525;SDS011;10421;49.142;9.232;2023-02-15T00:08:24;20.00;;;9.70;;
20525;SDS011;10421;49.142;9.232;2023-02-15T00:10:51;19.77;;;10.13;;
20525;SDS011;10421;49.142;9.232;2023-02-15T00:13:18;19.73;;;8.93;;
20525;SDS011;10421;49.142;9.232;2023-02-15T00:15:45;17.87;;;8.33;;
20525;SDS011;10421;49.142;9.232;2023-02-15T00:18:14;18.60;;;9.80;;
20525;SDS011;10421;49.142;9.232;2023-02-15T00:20:41;17.67;;;9.90;;
20525;SDS011;10421;49.142;9.232;2023-02-15T00:23:08;18.03;;;9.30;;
20525;SDS011;10421;49.142;9.232;2023-02-15T00:25:34;21.50;;;9.57;;
20525;SDS011;10421;49.142;9.232;2023-02-15T00:28:01;22.10;;;10.30;;
20525;SDS011;10421;49.142;9.232;2023-02-15T00:30:28;20.10;;;9.10;;
20525;SDS011;10421;49.142;9.232;2023-02-15T00:32:55;16.97;;;9.37;;
20525;SDS011;10421;49.142;9.232;2023-02-15T00:35:23;20.43;;;9.47;;
20525;SDS011;10421;49.142;9.232;2023-02-15T00:37:50;17.43;;;8.70;;
20525;SDS011;10421;49.142;9.232;2023-02-15T00:40:18;16.90;;;9.43;;
20525;SDS011;10421;49.142;9.232;2023-02-15T00:42:45;16.70;;;9.00;;
20525;SDS011;10421;49.142;9.232;2023-02-15T00:45:12;18.47;;;9.20;;
20525;SDS011;10421;49.142;9.232;2023-02-15T00:47:39;19.00;;;8.63;;
20525;SDS011;10421;49.142;9.232;2023-02-15T00:50:06;19.63;;;9.20;;
20525;SDS011;10421;49.142;9.232;2023-02-15T00:52:35;15.97;;;9.27;;
20525;SDS011;10421;49.142;9.232;2023-02-15T00:55:02;19.20;;;9.77;;
20525;SDS011;10421;49.142;9.232;2023-02-15T00:57:28;15.50;;;8.87;;
20525;SDS011;10421;49.142;9.232;2023-02-15T00:59:55;17.30;;;9.07;;
20525;SDS011;10421;49.142;9.232;2023-02-15T01:02:22;21.37;;;10.23;;
20525;SDS011;10421;49.142;9.232;2023-02-15T01:04:49;21.83;;;10.30;;
20525;SDS011;10421;49.142;9.232;2023-02-15T01:07:16;19.00;;;9.57;;
20525;SDS011;10421;49.142;9.232;2023-02-15T01:09:44;21.07;;;9.83;;
20525;SDS011;10421;49.142;9.232;2023-02-15T01:12:12;19.50;;;9.00;;
20525;SDS011;10421;49.142;9.232;2023-02-15T01:14:39;22.17;;;10.30;;
20525;SDS011;10421;49.142;9.232;2023-02-15T01:17:06;15.80;;;9.40;;
20525;SDS011;10421;49.142;9.232;2023-02-15T01:19:33;20.43;;;10.30;;
20525;SDS011;10421;49.142;9.232;2023-02-15T01:21:59;19.60;;;10.17;;
20525;SDS011;10421;49.142;9.232;2023-02-15T01:24:26;19.60;;;9.80;;
20525;SDS011;10421;49.142;9.232;2023-02-15T01:26:54;19.43;;;10.40;;
20525;SDS011;10421;49.142;9.232;2023-02-15T01:29:21;17.40;;;9.50;;
20525;SDS011;10421;49.142;9.232;2023-02-15T01:31:48;15.37;;;8.67;;
20525;SDS011;10421;49.142;9.232;2023-02-15T01:34:14;22.23;;;10.17;;
20525;SDS011;10421;49.142;9.232;2023-02-15T01:36:41;19.20;;;10.90;;
20525;SDS011;10421;49.142;9.232;2023-02-15T01:39:08;17.30;;;8.80;;
20525;SDS011;10421;49.142;9.232;2023-02-15T01:41:35;15.70;;;8.63;;
20525;SDS011;10421;49.142;9.232;2023-02-15T01:44:03;19.20;;;10.00;;
20525;SDS011;10421;49.142;9.232;2023-02-15T01:47:08;19.70;;;9.00;;
20525;SDS011;10421;49.142;9.232;2023-02-15T01:49:38;15.90;;;9.20;;
20525;SDS011;10421;49.142;9.232;2023-02-15T01:52:06;20.87;;;10.00;;
20525;SDS011;10421;49.142;9.232;2023-02-15T01:54:34;20.30;;;10.20;;
20525;SDS011;10421;49.142;9.232;2023-02-15T01:57:03;21.47;;;9.30;;
20525;SDS011;10421;49.142;9.232;2023-02-15T01:59:35;21.47;;;10.40;;
20525;SDS011;10421;49.142;9.232;2023-02-15T02:02:04;25.40;;;13.63;;
20525;SDS011;10421;49.142;9.232;2023-02-15T02:04:35;24.60;;;12.27;;
20525;SDS011;10421;49.142;9.232;2023-02-15T02:07:07;30.70;;;14.37;;
20525;SDS011;10421;49.142;9.232;2023-02-15T02:09:35;31.63;;;15.87;;
20525;SDS011;10421;49.142;9.232;2023-02-15T02:12:02;52.00;;;23.70;;
20525;SDS011;10421;49.142;9.232;2023-02-15T02:14:30;25.03;;;12.50;;
20525;SDS011;10421;49.142;9.232;2023-02-15T02:16:58;17.07;;;9.80;;
20525;SDS011;10421;49.142;9.232;2023-02-15T02:19:55;20.80;;;10.73;;
20525;SDS011;10421;49.142;9.232;2023-02-15T02:23:07;20.53;;;9.70;;
20525;SDS011;10421;49.142;9.232;2023-02-15T02:25:58;19.83;;;10.00;;
20525;SDS011;10421;49.142;9.232;2023-02-15T02:31:59;22.23;;;11.53;;
20525;SDS011;10421;49.142;9.232;2023-02-15T02:34:39;17.20;;;9.17;;
20525;SDS011;10421;49.142;9.232;2023-02-15T02:37:16;23.00;;;11.47;;
20525;SDS011;10421;49.142;9.232;2023-02-15T02:39:49;20.53;;;10.53;;
20525;SDS011;10421;49.142;9.232;2023-02-15T02:42:22;26.10;;;11.67;;
20525;SDS011;10421;49.142;9.232;2023-02-15T02:44:56;19.70;;;10.10;;
20525;SDS011;10421;49.142;9.232;2023-02-15T02:47:30;20.70;;;10.47;;
20525;SDS011;10421;49.142;9.232;2023-02-15T02:50:03;23.10;;;11.40;;
20525;SDS011;10421;49.142;9.232;2023-02-15T02:52:36;22.87;;;10.57;;
20525;SDS011;10421;49.142;9.232;2023-02-15T02:55:05;25.93;;;11.43;;
20525;SDS011;10421;49.142;9.232;2023-02-15T02:57:36;20.37;;;11.07;;
20525;SDS011;10421;49.142;9.232;2023-02-15T03:00:06;23.40;;;11.57;;
20525;SDS011;10421;49.142;9.232;2023-02-15T03:02:35;23.37;;;12.40;;
20525;SDS011;10421;49.142;9.232;2023-02-15T03:05:09;23.10;;;11.40;;
20525;SDS011;10421;49.142;9.232;2023-02-15T03:07:40;22.80;;;11.63;;
20525;SDS011;10421;49.142;9.232;2023-02-15T03:10:09;17.43;;;10.13;;
20525;SDS011;10421;49.142;9.232;2023-02-15T03:12:37;22.33;;;11.20;;
20525;SDS011;10421;49.142;9.232;2023-02-15T03:15:07;20.87;;;10.23;;
20525;SDS011;10421;49.142;9.232;2023-02-15T03:17:37;25.53;;;11.07;;
20525;SDS011;10421;49.142;9.232;2023-02-15T03:20:09;19.33;;;11.07;;
20525;SDS011;10421;49.142;9.232;2023-02-15T03:22:40;22.23;;;11.10;;
20525;SDS011;10421;49.142;9.232;2023-02-15T03:25:13;20.00;;;11.00;;
20525;SDS011;10421;49.142;9.232;2023-02-15T03:27:43;26.30;;;12.00;;
20525;SDS011;10421;49.142;9.232;2023-02-15T03:30:13;22.53;;;10.13;;
20525;SDS011;10421;49.142;9.232;2023-02-15T03:32:43;24.57;;;11.00;;
20525;SDS011;10421;49.142;9.232;2023-02-15T03:35:13;23.13;;;11.00;;
20525;SDS011;10421;49.142;9.232;2023-02-15T03:37:41;19.47;;;10.10;;
20525;SDS011;10421;49.142;9.232;2023-02-15T03:40:12;24.30;;;10.30;;
20525;SDS011;10421;49.142;9.232;2023-02-15T03:43:03;21.33;;;9.90;;
20525;SDS011;10421;49.142;9.232;2023-02-15T03:45:36;21.13;;;10.67;;
20525;SDS011;10421;49.142;9.232;2023-02-15T03:48:19;19.03;;;10.60;;
20525;SDS011;10421;49.142;9.232;2023-02-15T03:50:51;22.13;;;10.33;;
20525;SDS011;10421;49.142;9.232;2023-02-15T03:53:38;21.70;;;11.17;;
20525;SDS011;10421;49.142;9.232;2023-02-15T03:56:06;22.17;;;10.57;;
20525;SDS011;10421;49.142;9.232;2023-02-15T03:58:32;23.93;;;11.30;;
20525;SDS011;10421;49.142;9.232;2023-02-15T04:01:18;20.43;;;9.97;;
20525;SDS011;10421;49.142;9.232;2023-02-15T04:04:23;19.10;;;9.47;;
20525;SDS011;10421;49.142;9.232;2023-02-15T04:06:55;22.90;;;10.47;;
20525;SDS011;10421;49.142;9.232;2023-02-15T04:09:22;19.13;;;10.20;;
20525;SDS011;10421;49.142;9.232;2023-02-15T04:12:07;20.73;;;10.00;;
20525;SDS011;10421;49.142;9.232;2023-02-15T04:14:34;19.77;;;10.30;;
20525;SDS011;10421;49.142;9.232;2023-02-15T04:17:18;19.70;;;10.30;;
20525;SDS011;10421;49.142;9.232;2023-02-15T04:19:45;26.07;;;11.30;;
20525;SDS011;10421;49.142;9.232;2023-02-15T04:22:30;20.70;;;9.97;;
20525;SDS011;10421;49.142;9.232;2023-02-15T04:25:15;24.13;;;10.77;;
20525;SDS011;10421;49.142;9.232;2023-02-15T04:27:42;20.70;;;10.40;;
20525;SDS011;10421;49.142;9.232;2023-02-15T04:30:11;17.73;;;10.33;;
20525;SDS011;10421;49.142;9.232;2023-02-15T04:32:39;28.87;;;12.00;;
20525;SDS011;10421;49.142;9.232;2023-02-15T04:35:06;23.77;;;10.30;;
20525;SDS011;10421;49.142;9.232;2023-02-15T04:37:35;26.73;;;12.30;;
20525;SDS011;10421;49.142;9.232;2023-02-15T04:40:02;23.43;;;11.53;;
20525;SDS011;10421;49.142;9.232;2023-02-15T04:42:29;22.30;;;9.83;;
20525;SDS011;10421;49.142;9.232;2023-02-15T04:44:56;23.90;;;10.90;;
20525;SDS011;10421;49.142;9.232;2023-02-15T04:47:23;24.90;;;11.30;;
20525;SDS011;10421;49.142;9.232;2023-02-15T04:49:49;25.47;;;11.87;;
20525;SDS011;10421;49.142;9.232;2023-02-15T04:52:16;25.73;;;10.63;;
20525;SDS011;10421;49.142;9.232;2023-02-15T04:54:44;26.57;;;11.30;;
20525;SDS011;10421;49.142;9.232;2023-02-15T04:57:11;25.13;;;11.70;;
20525;SDS011;10421;49.142;9.232;2023-02-15T04:59:39;22.43;;;11.23;;
20525;SDS011;10421;49.142;9.232;2023-02-15T05:02:06;22.80;;;10.53;;
20525;SDS011;10421;49.142;9.232;2023-02-15T05:04:33;22.40;;;10.73;;
20525;SDS011;10421;49.142;9.232;2023-02-15T05:07:00;26.83;;;11.50;;
20525;SDS011;10421;49.142;9.232;2023-02-15T05:09:27;20.77;;;10.93;;
20525;SDS011;10421;49.142;9.232;2023-02-15T05:11:56;23.73;;;11.30;;
20525;SDS011;10421;49.142;9.232;2023-02-15T05:14:22;25.57;;;11.40;;
20525;SDS011;10421;49.142;9.232;2023-02-15T05:16:49;23.60;;;11.07;;
20525;SDS011;10421;49.142;9.232;2023-02-15T05:19:16;23.60;;;11.67;;
20525;SDS011;10421;49.142;9.232;2023-02-15T05:21:42;24.00;;;10.97;;
20525;SDS011;10421;49.142;9.232;2023-02-15T05:24:09;22.97;;;11.20;;
20525;SDS011;10421;49.142;9.232;2023-02-15T05:26:50;23.83;;;11.70;;
20525;SDS011;10421;49.142;9.232;2023-02-15T05:29:35;25.93;;;12.20;;
20525;SDS011;10421;49.142;9.232;2023-02-15T05:32:02;27.20;;;13.40;;
20525;SDS011;10421;49.142;9.232;2023-02-15T05:34:30;21.97;;;11.03;;
20525;SDS011;10421;49.142;9.232;2023-02-15T05:36:56;22.23;;;11.30;;
20525;SDS011;10421;49.142;9.232;2023-02-15T05:39:23;25.27;;;11.37;;
20525;SDS011;10421;49.142;9.232;2023-02-15T05:41:50;24.43;;;11.10;;
20525;SDS011;10421;49.142;9.232;2023-02-15T05:44:16;24.43;;;11.57;;
20525;SDS011;10421;49.142;9.232;2023-02-15T05:46:45;28.37;;;13.73;;
20525;SDS011;10421;49.142;9.232;2023-02-15T05:49:11;28.57;;;12.87;;
20525;SDS011;10421;49.142;9.232;2023-02-15T05:51:38;30.40;;;14.23;;
20525;SDS011;10421;49.142;9.232;2023-02-15T05:54:05;26.10;;;11.70;;
20525;SDS011;10421;49.142;9.232;2023-02-15T05:56:31;24.23;;;11.17;;
20525;SDS011;10421;49.142;9.232;2023-02-15T05:58:58;26.27;;;11.30;;
20525;SDS011;10421;49.142;9.232;2023-02-15T06:01:25;28.50;;;12.43;;
20525;SDS011;10421;49.142;9.232;2023-02-15T06:03:53;22.80;;;10.93;;
20525;SDS011;10421;49.142;9.232;2023-02-15T06:06:20;20.23;;;10.70;;
20525;SDS011;10421;49.142;9.232;2023-02-15T06:08:47;22.60;;;10.90;;
20525;SDS011;10421;49.142;9.232;2023-02-15T06:11:14;22.97;;;10.90;;
20525;SDS011;10421;49.142;9.232;2023-02-15T06:13:41;21.40;;;11.60;;
20525;SDS011;10421;49.142;9.232;2023-02-15T06:16:08;27.53;;;12.10;;
20525;SDS011;10421;49.142;9.232;2023-02-15T06:18:34;24.10;;;11.37;;
20525;SDS011;10421;49.142;9.232;2023-02-15T06:21:02;22.30;;;10.73;;
20525;SDS011;10421;49.142;9.232;2023-02-15T06:23:29;25.03;;;11.80;;
20525;SDS011;10421;49.142;9.232;2023-02-15T06:25:56;25.67;;;12.20;;
20525;SDS011;10421;49.142;9.232;2023-02-15T06:28:23;26.60;;;11.70;;
20525;SDS011;10421;49.142;9.232;2023-02-15T06:30:50;21.77;;;11.27;;
20525;SDS011;10421;49.142;9.232;2023-02-15T06:33:17;27.40;;;13.37;;
20525;SDS011;10421;49.142;9.232;2023-02-15T06:35:44;24.63;;;12.10;;
20525;SDS011;10421;49.142;9.232;2023-02-15T06:38:13;25.57;;;12.30;;
20525;SDS011;10421;49.142;9.232;2023-02-15T06:40:39;25.47;;;11.70;;
20525;SDS011;10421;49.142;9.232;2023-02-15T06:43:06;21.40;;;10.60;;
20525;SDS011;10421;49.142;9.232;2023-02-15T06:45:33;21.20;;;10.40;;
20525;SDS011;10421;49.142;9.232;2023-02-15T06:48:00;29.03;;;11.17;;
20525;SDS011;10421;49.142;9.232;2023-02-15T06:50:26;23.20;;;11.17;;
20525;SDS011;10421;49.142;9.232;2023-02-15T06:52:55;23.00;;;11.40;;
20525;SDS011;10421;49.142;9.232;2023-02-15T06:55:24;21.70;;;11.03;;
20525;SDS011;10421;49.142;9.232;2023-02-15T06:57:50;20.77;;;10.93;;
20525;SDS011;10421;49.142;9.232;2023-02-15T07:00:17;26.03;;;11.30;;
20525;SDS011;10421;49.142;9.232;2023-02-15T07:02:47;27.90;;;12.30;;
20525;SDS011;10421;49.142;9.232;2023-02-15T07:05:14;24.80;;;11.67;;
20525;SDS011;10421;49.142;9.232;2023-02-15T07:07:41;22.07;;;11.87;;
20525;SDS011;10421;49.142;9.232;2023-02-15T07:10:08;23.93;;;11.97;;
20525;SDS011;10421;49.142;9.232;2023-02-15T07:12:36;25.57;;;11.43;;
20525;SDS011;10421;49.142;9.232;2023-02-15T07:15:09;22.17;;;11.37;;
20525;SDS011;10421;49.142;9.232;2023-02-15T07:17:41;20.70;;;11.53;;
20525;SDS011;10421;49.142;9.232;2023-02-15T07:20:09;22.73;;;10.17;;
20525;SDS011;10421;49.142;9.232;2023-02-15T07:22:38;23.93;;;11.37;;
20525;SDS011;10421;49.142;9.232;2023-02-15T07:25:05;22.20;;;12.10;;
20525;SDS011;10421;49.142;9.232;2023-02-15T07:27:34;21.93;;;10.20;;
20525;SDS011;10421;49.142;9.232;2023-02-15T07:30:02;17.80;;;9.70;;
20525;SDS011;10421;49.142;9.232;2023-02-15T07:32:30;20.07;;;11.23;;
20525;SDS011;10421;49.142;9.232;2023-02-15T07:34:58;20.47;;;10.90;;
20525;SDS011;10421;49.142;9.232;2023-02-15T07:37:26;22.20;;;11.43;;
20525;SDS011;10421;49.142;9.232;2023-02-15T07:39:53;19.17;;;10.67;;
20525;SDS011;10421;49.142;9.232;2023-02-15T07:42:20;24.77;;;12.03;;
20525;SDS011;10421;49.142;9.232;2023-02-15T07:44:48;20.13;;;10.37;;
20525;SDS011;10421;49.142;9.232;2023-02-15T07:47:15;19.63;;;10.63;;
20525;SDS011;10421;49.142;9.232;2023-02-15T07:49:42;20.37;;;10.60;;
20525;SDS011;10421;49.142;9.232;2023-02-15T07:52:09;22.90;;;10.40;;
20525;SDS011;10421;49.142;9.232;2023-02-15T07:54:35;25.30;;;12.23;;
20525;SDS011;10421;49.142;9.232;2023-02-15T07:57:02;28.40;;;12.27;;
20525;SDS011;10421;49.142;9.232;2023-02-15T07:59:29;20.60;;;11.20;;
20525;SDS011;10421;49.142;9.232;2023-02-15T08:01:57;24.50;;;11.57;;
20525;SDS011;10421;49.142;9.232;2023-02-15T08:04:24;24.40;;;10.87;;
20525;SDS011;10421;49.142;9.232;2023-02-15T08:06:53;22.00;;;11.00;;
20525;SDS011;10421;49.142;9.232;2023-02-15T08:09:20;27.37;;;12.50;;
20525;SDS011;10421;49.142;9.232;2023-02-15T08:11:47;27.53;;;12.40;;
20525;SDS011;10421;49.142;9.232;2023-02-15T08:14:15;25.70;;;11.73;;
20525;SDS011;10421;49.142;9.232;2023-02-15T08:16:44;22.13;;;11.80;;
20525;SDS011;10421;49.142;9.232;2023-02-15T08:19:16;25.97;;;12.40;;
20525;SDS011;10421;49.142;9.232;2023-02-15T08:21:44;25.17;;;12.33;;
20525;SDS011;10421;49.142;9.232;2023-02-15T08:24:13;25.03;;;11.80;;
20525;SDS011;10421;49.142;9.232;2023-02-15T08:26:41;24.40;;;11.70;;
20525;SDS011;10421;49.142;9.232;2023-02-15T08:29:10;20.97;;;12.00;;
20525;SDS011;10421;49.142;9.232;2023-02-15T08:31:37;25.13;;;12.90;;
20525;SDS011;10421;49.142;9.232;2023-02-15T08:34:05;26.80;;;12.20;;
20525;SDS011;10421;49.142;9.232;2023-02-15T08:36:34;25.20;;;12.03;;
20525;SDS011;10421;49.142;9.232;2023-02-15T08:39:01;27.77;;;12.60;;
20525;SDS011;10421;49.142;9.232;2023-02-15T08:41:31;28.60;;;12.43;;
20525;SDS011;10421;49.142;9.232;2023-02-15T08:43:59;23.07;;;12.20;;
20525;SDS011;10421;49.142;9.232;2023-02-15T08:46:28;24.70;;;11.37;;
20525;SDS011;10421;49.142;9.232;2023-02-15T08:48:56;25.70;;;11.67;;
20525;SDS011;10421;49.142;9.232;2023-02-15T08:51:24;24.47;;;11.77;;
20525;SDS011;10421;49.142;9.232;2023-02-15T08:53:53;22.60;;;11.73;;
20525;SDS011;10421;49.142;9.232;2023-02-15T08:56:22;23.77;;;11.20;;
20525;SDS011;10421;49.142;9.232;2023-02-15T08:58:50;24.97;;;12.67;;
20525;SDS011;10421;49.142;9.232;2023-02-15T09:01:19;24.30;;;11.90;;
20525;SDS011;10421;49.142;9.232;2023-02-15T09:03:48;29.50;;;13.97;;
20525;SDS011;10421;49.142;9.232;2023-02-15T09:06:18;26.13;;;13.43;;
20525;SDS011;10421;49.142;9.232;2023-02-15T09:08:45;28.37;;;14.00;;
20525;SDS011;10421;49.142;9.232;2023-02-15T09:11:14;23.27;;;12.07;;
20525;SDS011;10421;49.142;9.232;2023-02-15T09:13:47;26.23;;;12.23;;
20525;SDS011;10421;49.142;9.232;2023-02-15T09:16:15;27.70;;;12.20;;
20525;SDS011;10421;49.142;9.232;2023-02-15T09:18:42;24.73;;;11.80;;
20525;SDS011;10421;49.142;9.232;2023-02-15T09:21:10;21.47;;;10.73;;
20525;SDS011;10421;49.142;9.232;2023-02-15T09:23:39;23.90;;;11.17;;
20525;SDS011;10421;49.142;9.232;2023-02-15T09:26:07;26.23;;;11.90;;
20525;SDS011;10421;49.142;9.232;2023-02-15T09:28:37;25.77;;;13.03;;
20525;SDS011;10421;49.142;9.232;2023-02-15T09:31:05;21.20;;;10.77;;
20525;SDS011;10421;49.142;9.232;2023-02-15T09:33:36;29.97;;;13.33;;
20525;SDS011;10421;49.142;9.232;2023-02-15T09:36:04;23.67;;;11.13;;
20525;SDS011;10421;49.142;9.232;2023-02-15T09:38:31;27.93;;;12.70;;
20525;SDS011;10421;49.142;9.232;2023-02-15T09:41:03;20.33;;;11.30;;
20525;SDS011;10421;49.142;9.232;2023-02-15T09:43:44;22.33;;;11.30;;
20525;SDS011;10421;49.142;9.232;2023-02-15T09:46:29;22.80;;;11.93;;
20525;SDS011;10421;49.142;9.232;2023-02-15T09:49:09;21.23;;;11.10;;
20525;SDS011;10421;49.142;9.232;2023-02-15T09:54:56;20.63;;;10.87;;
20525;SDS011;10421;49.142;9.232;2023-02-15T09:57:45;21.40;;;11.60;;
20525;SDS011;10421;49.142;9.232;2023-02-15T10:00:21;24.10;;;12.63;;
20525;SDS011;10421;49.142;9.232;2023-02-15T10:03:02;21.53;;;10.87;;
20525;SDS011;10421;49.142;9.232;2023-02-15T10:05:40;21.47;;;12.23;;
20525;SDS011;10421;49.142;9.232;2023-02-15T10:08:23;17.13;;;9.80;;
20525;SDS011;10421;49.142;9.232;2023-02-15T10:11:00;18.43;;;9.90;;
20525;SDS011;10421;49.142;9.232;2023-02-15T10:13:51;21.60;;;11.13;;
20525;SDS011;10421;49.142;9.232;2023-02-15T10:16:26;21.93;;;10.97;;
20525;SDS011;10421;49.142;9.232;2023-02-15T10:19:02;20.47;;;11.50;;
20525;SDS011;10421;49.142;9.232;2023-02-15T10:21:41;21.47;;;11.30;;
20525;SDS011;10421;49.142;9.232;2023-02-15T10:24:23;22.53;;;10.83;;
20525;SDS011;10421;49.142;9.232;2023-02-15T10:27:00;24.37;;;11.73;;
20525;SDS011;10421;49.142;9.232;2023-02-15T10:29:33;24.87;;;12.53;;
20525;SDS011;10421;49.142;9.232;2023-02-15T10:32:06;22.57;;;11.43;;
20525;SDS011;10421;49.142;9.232;2023-02-15T10:34:48;26.00;;;13.13;;
20525;SDS011;10421;49.142;9.232;2023-02-15T10:37:21;23.73;;;12.30;;
20525;SDS011;10421;49.142;9.232;2023-02-15T10:40:07;26.43;;;13.30;;
20525;SDS011;10421;49.142;9.232;2023-02-15T10:42:41;27.57;;;12.00;;
20525;SDS011;10421;49.142;9.232;2023-02-15T10:45:20;24.60;;;12.60;;
20525;SDS011;10421;49.142;9.232;2023-02-15T10:48:06;24.40;;;13.20;;
20525;SDS011;10421;49.142;9.232;2023-02-15T10:50:49;26.23;;;12.87;;
20525;SDS011;10421;49.142;9.232;2023-02-15T10:53:23;25.53;;;13.10;;
20525;SDS011;10421;49.142;9.232;2023-02-15T10:56:08;23.60;;;12.60;;
20525;SDS011;10421;49.142;9.232;2023-02-15T10:58:48;31.50;;;13.40;;
20525;SDS011;10421;49.142;9.232;2023-02-15T11:01:24;25.50;;;13.73;;
20525;SDS011;10421;49.142;9.232;2023-02-15T11:04:09;23.00;;;12.30;;
20525;SDS011;10421;49.142;9.232;2023-02-15T11:07:02;25.40;;;13.70;;
20525;SDS011;10421;49.142;9.232;2023-02-15T11:09:33;26.80;;;14.67;;
20525;SDS011;10421;49.142;9.232;2023-02-15T11:12:04;28.60;;;14.80;;
20525;SDS011;10421;49.142;9.232;2023-02-15T11:14:37;33.23;;;15.33;;
20525;SDS011;10421;49.142;9.232;2023-02-15T11:17:09;26.30;;;14.20;;
20525;SDS011;10421;49.142;9.232;2023-02-15T11:19:41;26.00;;;14.40;;
20525;SDS011;10421;49.142;9.232;2023-02-15T11:22:14;29.10;;;14.20;;
20525;SDS011;10421;49.142;9.232;2023-02-15T11:24:42;26.10;;;14.63;;
20525;SDS011;10421;49.142;9.232;2023-02-15T11:27:16;28.40;;;14.50;;
20525;SDS011;10421;49.142;9.232;2023-02-15T11:29:48;26.10;;;13.50;;
20525;SDS011;10421;49.142;9.232;2023-02-15T11:32:21;22.60;;;13.00;;
20525;SDS011;10421;49.142;9.232;2023-02-15T11:34:53;27.73;;;14.97;;
20525;SDS011;10421;49.142;9.232;2023-02-15T11:37:26;24.77;;;14.43;;
20525;SDS011;10421;49.142;9.232;2023-02-15T11:39:56;25.37;;;14.70;;
20525;SDS011;10421;49.142;9.232;2023-02-15T11:42:23;26.87;;;15.60;;
20525;SDS011;10421;49.142;9.232;2023-02-15T11:44:55;26.30;;;14.83;;
20525;SDS011;10421;49.142;9.232;2023-02-15T11:47:28;26.30;;;15.37;;
20525;SDS011;10421;49.142;9.232;2023-02-15T11:49:56;29.33;;;16.73;;
20525;SDS011;10421;49.142;9.232;2023-02-15T11:52:23;26.67;;;14.97;;
20525;SDS011;10421;49.142;9.232;2023-02-15T11:54:50;26.37;;;15.67;;
20525;SDS011;10421;49.142;9.232;2023-02-15T11:57:19;26.73;;;15.00;;
20525;SDS011;10421;49.142;9.232;2023-02-15T11:59:52;26.87;;;15.23;;
20525;SDS011;10421;49.142;9.232;2023-02-15T12:02:23;27.60;;;15.70;;
20525;SDS011;10421;49.142;9.232;2023-02-15T12:04:52;25.97;;;14.80;;
20525;SDS011;10421;49.142;9.232;2023-02-15T12:07:24;29.53;;;16.77;;
20525;SDS011;10421;49.142;9.232;2023-02-15T12:09:56;23.80;;;15.40;;
20525;SDS011;10421;49.142;9.232;2023-02-15T12:12:29;27.73;;;16.00;;
20525;SDS011;10421;49.142;9.232;2023-02-15T12:14:58;26.40;;;16.33;;
20525;SDS011;10421;49.142;9.232;2023-02-15T12:17:27;30.50;;;16.77;;
20525;SDS011;10421;49.142;9.232;2023-02-15T12:19:57;25.40;;;15.90;;
20525;SDS011;10421;49.142;9.232;2023-02-15T12:22:27;26.07;;;14.43;;
20525;SDS011;10421;49.142;9.232;2023-02-15T12:24:57;27.77;;;15.67;;
20525;SDS011;10421;49.142;9.232;2023-02-15T12:27:26;30.27;;;16.20;;
20525;SDS011;10421;49.142;9.232;2023-02-15T12:29:55;27.57;;;16.17;;
20525;SDS011;10421;49.142;9.232;2023-02-15T12:32:25;29.27;;;16.33;;
20525;SDS011;10421;49.142;9.232;2023-02-15T12:34:55;30.13;;;15.27;;
20525;SDS011;10421;49.142;9.232;2023-02-15T12:37:32;26.77;;;15.93;;
20525;SDS011;10421;49.142;9.232;2023-02-15T12:40:00;27.60;;;16.40;;
20525;SDS011;10421;49.142;9.232;2023-02-15T12:42:28;27.40;;;16.80;;
20525;SDS011;10421;49.142;9.232;2023-02-15T12:45:19;26.70;;;15.47;;
20525;SDS011;10421;49.142;9.232;2023-02-15T12:47:47;26.27;;;15.20;;
20525;SDS011;10421;49.142;9.232;2023-02-15T12:50:36;26.07;;;14.97;;
20525;SDS011;10421;49.142;9.232;2023-02-15T12:53:11;23.17;;;14.43;;
20525;SDS011;10421;49.142;9.232;2023-02-15T12:55:49;29.03;;;16.50;;
20525;SDS011;10421;49.142;9.232;2023-02-15T12:58:18;26.30;;;16.37;;
20525;SDS011;10421;49.142;9.232;2023-02-15T13:00:47;31.40;;;16.13;;
20525;SDS011;10421;49.142;9.232;2023-02-15T13:03:15;27.10;;;14.90;;
20525;SDS011;10421;49.142;9.232;2023-02-15T13:05:45;28.87;;;16.60;;
20525;SDS011;10421;49.142;9.232;2023-02-15T13:08:17;25.43;;;15.53;;
20525;SDS011;10421;49.142;9.232;2023-02-15T13:10:52;28.20;;;16.13;;
20525;SDS011;10421;49.142;9.232;2023-02-15T13:13:21;23.33;;;14.80;;
20525;SDS011;10421;49.142;9.232;2023-02-15T13:15:52;27.87;;;14.37;;
20525;SDS011;10421;49.142;9.232;2023-02-15T13:18:28;26.60;;;14.40;;
20525;SDS011;10421;49.142;9.232;2023-02-15T13:20:59;25.90;;;16.27;;
20525;SDS011;10421;49.142;9.232;2023-02-15T13:23:37;25.87;;;15.23;;
20525;SDS011;10421;49.142;9.232;2023-02-15T13:26:08;24.87;;;14.37;;
20525;SDS011;10421;49.142;9.232;2023-02-15T13:28:41;28.00;;;15.47;;
20525;SDS011;10421;49.142;9.232;2023-02-15T13:31:12;25.23;;;14.80;;
20525;SDS011;10421;49.142;9.232;2023-02-15T13:33:41;21.90;;;15.10;;
20525;SDS011;10421;49.142;9.232;2023-02-15T13:36:12;26.67;;;15.30;;
20525;SDS011;10421;49.142;9.232;2023-02-15T13:38:49;23.57;;;14.07;;
20525;SDS011;10421;49.142;9.232;2023-02-15T13:41:25;24.37;;;15.37;;
20525;SDS011;10421;49.142;9.232;2023-02-15T13:43:59;22.10;;;13.50;;
20525;SDS011;10421;49.142;9.232;2023-02-15T13:46:43;22.30;;;15.30;;
20525;SDS011;10421;49.142;9.232;2023-02-15T13:49:21;29.23;;;15.80;;
20525;SDS011;10421;49.142;9.232;2023-02-15T13:52:00;22.10;;;14.20;;
20525;SDS011;10421;49.142;9.232;2023-02-15T13:54:49;21.77;;;13.90;;
20525;SDS011;10421;49.142;9.232;2023-02-15T14:00:21;24.50;;;14.93;;
20525;SDS011;10421;49.142;9.232;2023-02-15T14:05:46;27.77;;;15.33;;
20525;SDS011;10421;49.142;9.232;2023-02-15T14:08:24;28.73;;;17.20;;
20525;SDS011;10421;49.142;9.232;2023-02-15T14:11:04;28.27;;;14.80;;
20525;SDS011;10421;49.142;9.232;2023-02-15T14:13:46;20.77;;;13.73;;
20525;SDS011;10421;49.142;9.232;2023-02-15T14:16:27;26.73;;;14.60;;
20525;SDS011;10421;49.142;9.232;2023-02-15T14:19:09;21.93;;;14.63;;
20525;SDS011;10421;49.142;9.232;2023-02-15T14:21:42;25.90;;;15.43;;
20525;SDS011;10421;49.142;9.232;2023-02-15T14:24:17;24.10;;;15.20;;
20525;SDS011;10421;49.142;9.232;2023-02-15T14:26:54;24.70;;;14.73;;
20525;SDS011;10421;49.142;9.232;2023-02-15T14:29:33;23.13;;;14.10;;
20525;SDS011;10421;49.142;9.232;2023-02-15T14:32:11;27.23;;;16.07;;
20525;SDS011;10421;49.142;9.232;2023-02-15T14:34:42;22.47;;;14.37;;
20525;SDS011;10421;49.142;9.232;2023-02-15T14:37:13;24.93;;;14.53;;
20525;SDS011;10421;49.142;9.232;2023-02-15T14:39:47;23.13;;;13.40;;
20525;SDS011;10421;49.142;9.232;2023-02-15T14:42:40;23.40;;;13.00;;
20525;SDS011;10421;49.142;9.232;2023-02-15T14:45:15;22.93;;;13.87;;
20525;SDS011;10421;49.142;9.232;2023-02-15T14:47:46;26.77;;;14.70;;
20525;SDS011;10421;49.142;9.232;2023-02-15T14:50:35;24.10;;;15.07;;
20525;SDS011;10421;49.142;9.232;2023-02-15T14:53:16;28.00;;;14.53;;
20525;SDS011;10421;49.142;9.232;2023-02-15T14:56:15;23.73;;;14.43;;
20525;SDS011;10421;49.142;9.232;2023-02-15T14:59:00;24.27;;;14.33;;
20525;SDS011;10421;49.142;9.232;2023-02-15T15:01:51;20.40;;;13.43;;